Time;durP1;ratioP1;P1;durP2;ratioP2;P2;SDS_P1;SDS_P2;PMS_P1;PMS_P2;Temp;Humidity;BMP_temperature;BMP_pressure;BME280_temperature;BME280_humidity;BME280_pressure;Samples;Min_cycle;Max_cycle;Signal;HPM_P1;HPM_P2
2022/01/08 00:00:15;;;;;;;12.20;10.02;;;;;;;7.34;73.21;99857.81;5016093;28;20032;-87
2022/01/08 00:02:42;;;;;;;11.10;9.25;;;;;;;6.16;73.28;99677.78;4997138;28;20078;-88
2022/01/08 00:05:08;;;;;;;13.52;9.20;;;;;;;6.99;73.63;99790.34;5014430;28;20045;-87
2022/01/08 00:07:34;;;;;;;10.13;8.20;;;;;;;6.27;73.28;99677.56;5014611;28;20034;-88
2022/01/08 00:09:59;;;;;;;11.07;9.90;;;;;;;6.26;72.93;99684.63;5014396;28;20037;-88
2022/01/08 00:12:25;;;;;;;10.73;9.60;;;;;;;6.47;73.06;99720.25;5014587;28;20030;-88
2022/01/08 00:14:50;;;;;;;10.43;8.80;;;;;;;5.90;73.07;99619.94;5014255;28;20022;-88
2022/01/08 00:17:16;;;;;;;13.63;11.40;;;;;;;7.33;73.74;99850.09;4996516;28;20506;-88
2022/01/08 00:19:41;;;;;;;11.52;9.43;;;;;;;7.01;73.16;99785.78;4996487;28;20032;-88
2022/01/08 00:22:08;;;;;;;11.02;9.82;;;;;;;7.12;73.56;99810.16;5013895;28;20022;-88
2022/01/08 00:24:33;;;;;;;14.25;11.02;;;;;;;6.73;73.36;99750.06;5013947;28;20112;-89
2022/01/08 00:26:59;;;;;;;13.07;10.75;;;;;;;7.32;73.26;99851.06;5012936;28;20514;-88
2022/01/08 00:29:24;;;;;;;11.10;9.30;;;;;;;6.17;73.05;99666.31;4996526;28;20029;-88
2022/01/08 00:31:50;;;;;;;12.05;10.52;;;;;;;6.65;73.49;99737.66;5013913;28;20053;-88
2022/01/08 00:34:15;;;;;;;10.93;9.38;;;;;;;6.03;73.56;99637.00;4996383;28;20092;-88
2022/01/08 00:36:41;;;;;;;15.32;12.52;;;;;;;6.91;72.95;99769.28;5014662;28;20037;-88
2022/01/08 00:39:06;;;;;;;14.35;11.38;;;;;;;6.47;72.95;99697.47;4996272;28;20435;-88
2022/01/08 00:41:32;;;;;;;11.55;9.85;;;;;;;7.27;73.84;99827.03;5014082;28;20064;-88
2022/01/08 00:43:57;;;;;;;13.30;10.90;;;;;;;6.81;73.55;99763.25;5013995;28;20080;-88
2022/01/08 00:46:23;;;;;;;11.82;10.18;;;;;;;6.84;73.90;99773.47;5013789;28;20032;-88
2022/01/08 00:48:48;;;;;;;11.52;9.18;;;;;;;7.00;74.08;99793.81;4995991;28;20018;-87
2022/01/08 00:51:14;;;;;;;13.02;11.05;;;;;;;5.84;73.86;99603.00;5013476;28;20034;-88
2022/01/08 00:53:39;;;;;;;11.52;10.10;;;;;;;6.96;73.48;99798.53;5013769;28;20028;-87
2022/01/08 00:56:05;;;;;;;15.38;12.52;;;;;;;7.19;74.31;99811.22;5013717;28;20410;-88
2022/01/08 00:58:30;;;;;;;11.70;10.40;;;;;;;6.56;73.73;99701.81;5013265;28;20030;-89
2022/01/08 01:00:56;;;;;;;10.82;9.52;;;;;;;6.77;74.09;99724.34;5013281;28;20037;-89
2022/01/08 01:03:22;;;;;;;12.15;10.68;;;;;;;5.95;73.75;99594.16;5013459;28;20018;-89
2022/01/08 01:05:48;;;;;;;11.20;9.43;;;;;;;7.11;73.77;99822.47;4995775;28;20083;-90
2022/01/08 01:08:13;;;;;;;11.65;9.80;;;;;;;6.10;73.65;99639.03;5013098;28;20097;-89
2022/01/08 01:10:39;;;;;;;12.73;9.55;;;;;;;6.96;73.98;99782.78;4995453;28;20033;-88
2022/01/08 01:13:04;;;;;;;12.95;10.45;;;;;;;6.61;73.99;99730.22;5013427;28;20069;-89
2022/01/08 01:15:30;;;;;;;10.90;9.43;;;;;;;7.08;73.89;99812.25;5013437;28;20026;-89
2022/01/08 01:17:55;;;;;;;12.15;9.95;;;;;;;7.12;74.17;99781.28;5013215;28;20017;-89
2022/01/08 01:20:21;;;;;;;10.57;8.48;;;;;;;7.16;74.32;99775.56;5014602;28;20037;-89
2022/01/08 01:25:26;;;;;;;10.50;8.38;;;;;;;6.94;73.38;99726.16;5039742;28;20010;-86
2022/01/08 01:28:04;;;;;;;;;;;;;;;7.06;74.12;99766.94;5028583;28;20112;-88
2022/01/08 01:48:52;;;;;;;10.02;8.50;;;;;;;5.98;73.66;99586.00;5012420;28;20021;-88
2022/01/08 01:51:22;;;;;;;12.38;9.75;;;;;;;5.88;73.94;99544.06;5012362;28;20025;-89
2022/01/08 01:53:49;;;;;;;10.95;9.38;;;;;;;7.17;73.48;99748.34;5012298;28;20025;-89
2022/01/08 01:56:16;;;;;;;9.82;8.18;;;;;;;5.89;74.14;99539.66;5012617;28;20034;-89
2022/01/08 01:58:41;;;;;;;12.10;9.60;;;;;;;7.18;74.01;99739.50;5021125;28;20034;-86
2022/01/08 02:01:07;;;;;;;9.57;7.93;;;;;;;7.09;74.15;99722.00;5039734;28;20043;-88
2022/01/08 02:03:34;;;;;;;24.73;14.63;;;;;;;7.26;73.81;99738.72;5020248;28;20026;-88
2022/01/08 02:06:00;;;;;;;14.68;10.52;;;;;;;6.90;74.02;99675.75;5012102;28;20018;-89
2022/01/08 02:08:25;;;;;;;13.43;9.93;;;;;;;6.40;73.76;99598.53;5012125;28;20411;-89
2022/01/08 02:10:51;;;;;;;12.27;9.57;;;;;;;6.14;74.05;99546.84;5012126;28;20022;-89
2022/01/08 02:13:23;;;;;;;12.02;9.10;;;;;;;7.27;73.74;99730.69;5012305;28;20029;-89
2022/01/08 02:15:53;;;;;;;11.90;8.75;;;;;;;7.26;73.95;99730.84;5012332;28;20053;-89
2022/01/08 02:18:23;;;;;;;11.30;8.77;;;;;;;6.81;73.68;99641.72;5011999;28;20026;-88
2022/01/08 02:20:48;;;;;;;11.27;9.13;;;;;;;7.01;74.01;99675.53;5011904;28;20478;-89
2022/01/08 02:23:14;;;;;;;10.02;8.23;;;;;;;6.44;74.17;99586.78;5012045;28;20116;-89
2022/01/08 02:25:39;;;;;;;11.27;8.38;;;;;;;6.71;74.02;99631.31;5012029;28;20545;-89
2022/01/08 02:28:06;;;;;;;11.60;8.63;;;;;;;6.66;74.19;99633.53;5011649;28;20054;-90
2022/01/08 02:30:32;;;;;;;11.82;9.63;;;;;;;7.06;74.11;99688.19;5011746;28;20096;-89
2022/01/08 02:32:58;;;;;;;10.38;8.15;;;;;;;6.28;74.29;99579.59;5011685;28;20025;-89
2022/01/08 02:35:24;;;;;;;12.40;8.95;;;;;;;6.02;74.01;99525.28;5011519;28;20028;-88
2022/01/08 02:37:50;;;;;;;8.50;7.05;;;;;;;7.13;74.46;99702.34;5011666;28;20030;-89
2022/01/08 02:40:18;;;;;;;9.23;7.53;;;;;;;7.16;73.68;99702.06;5011806;28;20034;-89
2022/01/08 02:42:51;;;;;;;12.40;9.85;;;;;;;6.16;73.73;99589.47;5011747;28;20113;-89
2022/01/08 02:45:17;;;;;;;21.27;15.07;;;;;;;5.74;73.85;99471.22;5011483;28;20048;-88
2022/01/08 02:47:44;;;;;;;13.35;9.75;;;;;;;6.98;74.63;99675.00;4993775;28;20060;-89
2022/01/08 02:50:10;;;;;;;14.48;10.27;;;;;;;6.34;74.02;99555.38;5011059;28;20014;-89
2022/01/08 02:52:41;;;;;;;8.63;7.32;;;;;;;6.13;73.69;99513.75;5011563;28;20521;-89
2022/01/08 02:55:07;;;;;;;13.93;10.43;;;;;;;6.45;74.13;99567.44;5011654;28;20065;-90
2022/01/08 02:57:32;;;;;;;9.65;7.03;;;;;;;6.79;73.66;99627.94;5011557;28;20033;-89
2022/01/08 02:59:58;;;;;;;8.88;7.10;;;;;;;7.23;74.12;99700.47;4993864;28;20383;-89
2022/01/08 03:02:23;;;;;;;7.28;5.95;;;;;;;6.51;74.01;99591.28;5011581;28;20034;-89
2022/01/08 03:04:49;;;;;;;7.50;6.22;;;;;;;6.97;74.51;99660.22;4993929;28;20430;-89
2022/01/08 03:07:15;;;;;;;6.80;5.72;;;;;;;7.14;74.02;99684.81;5011507;28;20493;-89
2022/01/08 03:09:42;;;;;;;6.47;5.75;;;;;;;6.74;73.98;99628.38;5011160;28;20049;-89
2022/01/08 03:12:09;;;;;;;7.20;5.85;;;;;;;6.51;74.19;99606.19;5011209;28;20041;-90
2022/01/08 03:14:34;;;;;;;7.68;6.35;;;;;;;6.40;73.60;99561.81;5011200;28;20109;-89
2022/01/08 03:17:00;;;;;;;6.10;4.95;;;;;;;6.07;74.09;99527.47;5011112;28;20491;-89
2022/01/08 03:19:25;;;;;;;6.43;5.38;;;;;;;6.18;74.52;99545.56;5011094;28;20503;-89
2022/01/08 03:21:55;;;;;;;5.57;4.53;;;;;;;5.73;73.96;99480.88;5011370;28;20037;-89
2022/01/08 03:24:27;;;;;;;9.98;6.55;;;;;;;6.72;74.14;99627.72;5011674;28;20049;-89
2022/01/08 03:26:54;;;;;;;7.90;6.10;;;;;;;7.11;74.51;99691.19;5011485;28;20026;-90
2022/01/08 03:29:19;;;;;;;5.82;4.68;;;;;;;6.20;74.25;99533.16;5011497;28;20034;-89
2022/01/08 03:31:45;;;;;;;5.95;4.80;;;;;;;6.64;74.22;99604.81;5011357;28;20036;-89
2022/01/08 03:34:10;;;;;;;6.50;4.95;;;;;;;6.32;73.93;99544.22;5011154;28;20037;-89
2022/01/08 03:36:36;;;;;;;7.22;4.97;;;;;;;6.27;73.68;99531.56;5011189;28;20498;-89
2022/01/08 03:39:02;;;;;;;6.35;5.20;;;;;;;7.23;74.39;99725.91;5011101;28;20025;-90
2022/01/08 03:41:27;;;;;;;7.22;5.90;;;;;;;6.46;74.21;99563.84;4993617;28;20049;-90
2022/01/08 03:43:53;;;;;;;9.40;7.32;;;;;;;6.07;74.27;99500.41;5010981;28;20083;-89
2022/01/08 03:46:19;;;;;;;7.53;6.70;;;;;;;6.72;74.60;99614.59;5010811;28;20025;-89
2022/01/08 03:48:57;;;;;;;5.40;4.90;;;;;;;7.00;74.69;99658.13;5011092;28;20495;-89
2022/01/08 03:51:23;;;;;;;5.65;5.05;;;;;;;6.51;74.28;99598.31;5011189;28;20621;-90
2022/01/08 03:53:48;;;;;;;4.38;3.97;;;;;;;6.03;74.18;99519.06;5011260;28;20033;-89
2022/01/08 03:56:13;;;;;;;4.70;4.20;;;;;;;6.90;74.00;99639.00;5011062;28;20022;-89
2022/01/08 03:58:39;;;;;;;6.70;5.20;;;;;;;6.73;73.74;99603.13;5010731;28;20112;-89
2022/01/08 04:01:04;;;;;;;4.95;4.40;;;;;;;6.57;74.27;99602.97;5010829;28;20501;-89
2022/01/08 04:03:30;;;;;;;4.68;4.22;;;;;;;6.23;74.47;99542.50;4995615;28;20476;-89
2022/01/08 04:05:55;;;;;;;7.10;5.13;;;;;;;6.60;74.47;99586.91;5014433;28;20032;-88
2022/01/08 04:08:21;;;;;;;6.35;5.07;;;;;;;5.94;73.75;99483.25;5014575;28;20042;-89
2022/01/08 04:10:46;;;;;;;5.13;4.35;;;;;;;5.85;73.57;99471.00;5014425;28;20030;-89
2022/01/08 04:13:15;;;;;;;4.82;4.32;;;;;;;5.82;74.06;99455.59;5014419;28;20261;-90
2022/01/08 04:15:44;;;;;;;4.50;4.10;;;;;;;6.45;73.75;99575.31;5014523;28;20414;-89
2022/01/08 04:18:10;;;;;;;5.38;4.85;;;;;;;7.20;73.95;99699.94;5014625;28;20025;-89
2022/01/08 04:23:28;;;;;;;7.65;5.75;;;;;;;6.25;73.88;99527.44;5003426;28;20586;-89
2022/01/08 04:25:53;;;;;;;9.85;6.45;;;;;;;6.08;74.38;99504.69;5013996;28;20121;-89
2022/01/08 04:28:19;;;;;;;6.75;5.57;;;;;;;6.62;73.82;99588.41;5013866;28;20018;-89
2022/01/08 04:30:45;;;;;;;11.95;7.47;;;;;;;7.16;74.72;99675.78;5013741;28;20487;-89
2022/01/08 04:33:11;;;;;;;11.27;8.30;;;;;;;7.16;74.76;99703.84;5013940;28;20025;-89
2022/01/08 04:35:37;;;;;;;8.02;5.80;;;;;;;5.73;73.96;99456.50;5013975;28;20025;-89
2022/01/08 04:38:02;;;;;;;9.38;7.60;;;;;;;7.15;74.24;99703.03;5014735;28;20029;-88
2022/01/08 04:40:28;;;;;;;7.32;6.15;;;;;;;7.15;74.64;99696.97;5014305;28;20396;-89
2022/01/08 04:42:54;;;;;;;7.13;6.10;;;;;;;6.37;74.13;99547.22;5013756;28;20104;-89
2022/01/08 04:45:21;;;;;;;7.80;6.53;;;;;;;5.86;73.91;99464.78;5013778;28;20105;-89
2022/01/08 04:47:46;;;;;;;11.93;8.70;;;;;;;6.00;73.95;99502.81;5013750;28;20047;-89
2022/01/08 04:50:12;;;;;;;9.02;7.30;;;;;;;6.19;73.91;99509.69;5013829;28;20518;-89
2022/01/08 04:52:41;;;;;;;10.13;8.20;;;;;;;7.16;74.47;99665.28;5013593;28;20111;-89
2022/01/08 04:55:06;;;;;;;10.50;7.90;;;;;;;5.73;74.32;99438.16;5013720;28;20026;-89
2022/01/08 04:57:32;;;;;;;11.32;8.50;;;;;;;6.48;73.98;99573.22;5013744;28;20483;-89
2022/01/08 04:59:57;;;;;;;9.60;7.05;;;;;;;7.00;74.71;99644.16;5013759;28;20026;-89
2022/01/08 05:02:23;;;;;;;7.95;7.15;;;;;;;7.19;74.55;99682.53;5013767;28;20391;-89
2022/01/08 05:04:48;;;;;;;9.27;7.80;;;;;;;7.16;74.40;99680.22;5013272;28;20061;-89
2022/01/08 05:07:14;;;;;;;12.85;9.45;;;;;;;6.97;74.07;99647.09;5013330;28;20037;-89
2022/01/08 05:09:39;;;;;;;15.00;9.32;;;;;;;6.64;74.00;99585.63;5013184;28;20029;-89
2022/01/08 05:12:05;;;;;;;18.58;12.05;;;;;;;6.42;74.22;99555.47;4996303;28;20088;-89
2022/01/08 05:14:30;;;;;;;15.45;11.20;;;;;;;6.14;74.49;99536.38;5014016;28;20029;-89
2022/01/08 05:17:01;;;;;;;12.25;9.27;;;;;;;6.67;74.16;99606.31;5013659;28;20033;-89
2022/01/08 05:19:46;;;;;;;11.20;8.90;;;;;;;6.09;74.10;99514.19;5013142;28;20026;-89
2022/01/08 05:22:21;;;;;;;14.27;10.85;;;;;;;5.72;74.43;99437.31;5013408;28;20026;-88
2022/01/08 05:24:46;;;;;;;13.77;10.52;;;;;;;6.95;74.41;99633.31;5013036;28;20026;-88
2022/01/08 05:27:17;;;;;;;12.20;10.75;;;;;;;6.49;74.05;99561.75;5012870;28;20477;-87
2022/01/08 05:29:46;;;;;;;18.20;13.88;;;;;;;7.19;74.28;99690.41;5013142;28;20101;-88
2022/01/08 05:32:18;;;;;;;18.13;14.10;;;;;;;6.64;74.67;99575.97;4995330;28;20030;-87
2022/01/08 05:34:48;;;;;;;16.92;14.68;;;;;;;5.99;74.40;99473.16;5012860;28;20495;-88
2022/01/08 05:37:16;;;;;;;12.77;11.38;;;;;;;7.22;74.61;99661.22;5012894;28;20042;-88
2022/01/08 05:39:42;;;;;;;15.38;12.65;;;;;;;7.09;74.43;99668.69;5012863;28;20029;-88
2022/01/08 05:42:08;;;;;;;12.57;11.27;;;;;;;7.23;74.69;99665.50;5012895;28;20079;-88
2022/01/08 05:44:33;;;;;;;16.58;14.32;;;;;;;7.16;74.55;99667.09;4995121;28;20033;-87
2022/01/08 05:46:59;;;;;;;16.30;14.48;;;;;;;7.26;74.28;99662.56;5012416;28;20034;-88
2022/01/08 05:49:25;;;;;;;19.15;17.15;;;;;;;7.26;74.92;99689.66;5012781;28;20037;-87
2022/01/08 05:51:50;;;;;;;13.90;12.57;;;;;;;7.26;75.00;99659.94;5012644;28;20407;-88
2022/01/08 05:54:15;;;;;;;14.10;12.68;;;;;;;6.51;74.66;99533.56;5012602;28;20479;-88
2022/01/08 05:56:41;;;;;;;9.65;8.40;;;;;;;6.40;74.42;99518.06;5012370;28;20034;-88
2022/01/08 05:59:06;;;;;;;21.55;17.70;;;;;;;6.74;74.35;99573.28;5012250;28;20022;-88
2022/01/08 06:01:33;;;;;;;14.20;11.75;;;;;;;7.25;74.31;99653.03;4994750;28;20392;-86
2022/01/08 06:03:59;;;;;;;11.75;10.55;;;;;;;5.74;74.45;99406.56;5012187;28;20053;-86
2022/01/08 06:06:24;;;;;;;14.13;11.70;;;;;;;6.52;74.03;99537.84;5034749;28;20061;-88
2022/01/08 06:08:50;;;;;;;37.13;26.30;;;;;;;6.76;74.63;99581.00;5012592;28;20546;-88
2022/01/08 06:11:15;;;;;;;19.77;16.67;;;;;;;6.92;74.82;99600.31;5012692;28;20558;-88
2022/01/08 06:13:41;;;;;;;16.00;14.30;;;;;;;6.31;74.26;99514.56;5012926;28;20030;-88
2022/01/08 06:16:06;;;;;;;20.73;18.33;;;;;;;7.07;74.43;99632.06;5012828;28;20092;-87
2022/01/08 06:18:31;;;;;;;17.65;14.95;;;;;;;6.87;74.70;99604.38;5012112;28;20092;-88
2022/01/08 06:20:59;;;;;;;22.25;17.42;;;;;;;6.95;75.04;99625.44;5012301;28;20552;-88
2022/01/08 06:23:28;;;;;;;18.77;15.13;;;;;;;7.21;74.99;99654.31;5012046;28;20517;-88
2022/01/08 06:25:53;;;;;;;27.95;20.65;;;;;;;6.46;74.65;99538.44;5011192;28;20037;-88
2022/01/08 06:28:19;;;;;;;30.20;23.20;;;;;;;5.88;74.77;99447.13;5011989;28;20547;-88
2022/01/08 06:30:44;;;;;;;22.92;19.25;;;;;;;5.33;74.57;99354.81;5012095;28;20034;-87
2022/01/08 06:33:10;;;;;;;23.90;19.17;;;;;;;5.96;75.28;99468.22;5012286;28;20030;-87
2022/01/08 06:35:36;;;;;;;22.00;19.20;;;;;;;6.48;74.91;99544.34;5011840;28;20060;-86
2022/01/08 06:38:01;;;;;;;18.50;16.50;;;;;;;6.40;74.55;99553.97;5011806;28;20487;-85
2022/01/08 06:40:27;;;;;;;19.02;15.43;;;;;;;6.73;75.12;99600.50;5011838;28;20553;-87
2022/01/08 06:42:52;;;;;;;19.45;17.15;;;;;;;6.49;75.42;99540.75;4994090;28;20029;-90
2022/01/08 06:45:17;;;;;;;21.95;17.48;;;;;;;7.24;75.25;99669.78;5011663;28;20030;-89
2022/01/08 06:47:45;;;;;;;20.70;17.13;;;;;;;6.69;75.42;99575.53;5011642;28;20022;-88
2022/01/08 06:50:12;;;;;;;23.13;18.60;;;;;;;7.13;74.78;99628.84;5011990;28;20495;-89
2022/01/08 06:52:38;;;;;;;17.27;14.93;;;;;;;6.63;74.72;99555.13;5011785;28;20695;-89
2022/01/08 06:55:04;;;;;;;21.67;17.05;;;;;;;6.17;74.91;99470.53;5011787;28;20104;-89
2022/01/08 06:57:30;;;;;;;17.80;14.80;;;;;;;6.64;75.07;99543.66;5011847;28;20026;-88
2022/01/08 06:59:55;;;;;;;18.50;14.52;;;;;;;6.95;74.62;99586.88;5011295;28;20105;-88
2022/01/08 07:02:20;;;;;;;20.08;16.58;;;;;;;6.14;74.72;99454.28;5011540;28;20534;-89
2022/01/08 07:04:46;;;;;;;20.23;16.15;;;;;;;6.80;74.88;99550.84;5011353;28;20499;-89
2022/01/08 07:07:11;;;;;;;22.95;20.00;;;;;;;6.52;74.70;99539.63;4994029;28;20120;-89
2022/01/08 07:09:37;;;;;;;22.55;19.00;;;;;;;7.44;74.96;99683.56;5011554;28;20036;-88
2022/01/08 07:12:02;;;;;;;30.48;24.88;;;;;;;6.55;75.43;99540.16;5011675;28;20037;-90
2022/01/08 07:14:28;;;;;;;31.15;22.70;;;;;;;7.09;75.60;99614.38;5011642;28;20030;-89
2022/01/08 07:16:54;;;;;;;25.30;20.27;;;;;;;7.14;75.15;99638.38;5011656;28;20026;-89
2022/01/08 07:19:20;;;;;;;39.17;28.67;;;;;;;7.50;75.35;99670.63;5011311;28;20026;-88
2022/01/08 07:21:45;;;;;;;36.13;25.67;;;;;;;7.08;75.49;99606.66;5011309;28;20095;-88
2022/01/08 07:24:11;;;;;;;46.95;28.73;;;;;;;7.44;75.47;99666.00;5011695;28;20487;-89
2022/01/08 07:26:36;;;;;;;29.00;19.88;;;;;;;6.54;74.75;99516.69;5011420;28;20470;-89
2022/01/08 07:29:02;;;;;;;42.70;27.33;;;;;;;7.56;75.28;99663.94;5011549;28;20080;-89
2022/01/08 07:31:27;;;;;;;40.53;26.73;;;;;;;6.45;75.37;99468.59;5011502;28;20068;-89
2022/01/08 07:33:53;;;;;;;23.27;17.67;;;;;;;6.94;75.41;99555.53;5011404;28;20088;-89
2022/01/08 07:36:19;;;;;;;23.60;17.42;;;;;;;7.20;75.53;99592.28;5012305;28;20087;-89
2022/01/08 07:38:44;;;;;;;24.35;18.77;;;;;;;7.09;74.72;99567.13;4997749;28;20029;-89
2022/01/08 07:41:10;;;;;;;22.63;17.73;;;;;;;7.14;75.69;99571.91;5015094;28;20103;-89
2022/01/08 07:43:35;;;;;;;29.42;20.83;;;;;;;7.06;75.25;99583.19;5015452;28;20485;-88
2022/01/08 07:46:01;;;;;;;30.98;22.23;;;;;;;7.43;75.14;99617.06;5015857;28;20568;-89
2022/01/08 07:48:26;;;;;;;23.80;19.38;;;;;;;6.73;75.11;99523.59;4997940;28;20479;-89
2022/01/08 07:50:52;;;;;;;24.40;18.38;;;;;;;6.44;75.15;99459.09;5014738;28;20036;-89
2022/01/08 07:53:18;;;;;;;20.05;15.98;;;;;;;7.33;75.19;99613.69;5014671;28;20034;-89
2022/01/08 07:55:44;;;;;;;25.90;18.45;;;;;;;5.92;75.07;99371.69;5014682;28;20026;-88
2022/01/08 07:58:10;;;;;;;25.25;18.05;;;;;;;6.74;75.43;99504.25;5014465;28;20557;-90
2022/01/08 08:00:35;;;;;;;32.42;22.40;;;;;;;6.91;75.53;99522.56;5014767;28;20026;-90
2022/01/08 08:03:01;;;;;;;29.20;20.17;;;;;;;6.21;75.25;99432.56;5014709;28;20104;-89
2022/01/08 08:05:26;;;;;;;21.52;14.95;;;;;;;7.05;75.02;99542.16;5014760;28;20538;-89
2022/01/08 08:07:52;;;;;;;23.90;18.25;;;;;;;7.21;75.41;99565.88;5014561;28;20111;-89
2022/01/08 08:10:17;;;;;;;24.33;17.55;;;;;;;6.83;75.58;99501.50;5014746;28;20018;-89
2022/01/08 08:12:43;;;;;;;31.77;23.13;;;;;;;6.45;75.42;99454.66;4997022;28;20083;-89
2022/01/08 08:15:13;;;;;;;24.25;18.65;;;;;;;6.40;75.18;99428.09;5014700;28;20116;-89
2022/01/08 08:17:38;;;;;;;22.70;18.58;;;;;;;6.88;75.58;99520.25;5014652;28;20502;-89
2022/01/08 08:20:05;;;;;;;24.65;20.80;;;;;;;6.45;75.26;99457.28;4996481;28;20033;-89
2022/01/08 08:22:31;;;;;;;18.35;15.88;;;;;;;7.07;75.31;99540.19;5013950;28;20021;-89
2022/01/08 08:24:56;;;;;;;16.40;13.80;;;;;;;7.61;75.86;99627.50;5014268;28;20047;-89
2022/01/08 08:27:22;;;;;;;15.77;12.77;;;;;;;7.05;75.08;99533.47;4996486;28;20036;-88
2022/01/08 08:29:47;;;;;;;16.38;13.18;;;;;;;6.54;75.62;99449.31;5014165;28;20025;-88
2022/01/08 08:32:13;;;;;;;20.50;16.75;;;;;;;6.80;75.64;99493.94;5013819;28;20030;-89
2022/01/08 08:34:38;;;;;;;18.73;16.08;;;;;;;7.25;75.47;99576.88;5013964;28;20403;-89
2022/01/08 08:37:04;;;;;;;17.10;14.65;;;;;;;7.08;75.25;99531.34;5014157;28;20029;-89
2022/01/08 08:39:30;;;;;;;19.30;15.80;;;;;;;7.71;76.14;99635.28;5014367;28;20029;-89
2022/01/08 08:41:55;;;;;;;27.20;20.45;;;;;;;6.50;75.81;99445.38;4996517;28;20029;-89
2022/01/08 08:44:21;;;;;;;23.13;18.23;;;;;;;7.41;75.74;99573.53;5014169;28;20038;-88
2022/01/08 08:46:46;;;;;;;24.42;18.92;;;;;;;6.51;76.12;99441.75;4996384;28;20032;-89
2022/01/08 08:49:12;;;;;;;24.25;18.92;;;;;;;6.97;75.86;99534.22;5013374;28;20034;-87
2022/01/08 08:51:37;;;;;;;24.63;19.95;;;;;;;7.39;75.90;99563.16;5013842;28;20037;-89
2022/01/08 08:54:03;;;;;;;25.42;19.80;;;;;;;6.50;76.26;99415.69;4996113;28;20029;-89
2022/01/08 08:56:29;;;;;;;23.88;19.58;;;;;;;6.83;75.98;99463.94;5013677;28;20034;-89
2022/01/08 08:58:55;;;;;;;23.08;18.05;;;;;;;6.47;76.07;99387.16;5013665;28;20030;-89
2022/01/08 09:01:21;;;;;;;25.65;20.27;;;;;;;7.76;75.73;99591.75;5013723;28;20034;-89
2022/01/08 09:03:47;;;;;;;26.42;20.33;;;;;;;7.69;75.73;99596.00;5013605;28;20415;-89
2022/01/08 09:06:12;;;;;;;23.45;19.23;;;;;;;7.82;76.45;99583.25;5013355;28;20108;-89
2022/01/08 09:08:38;;;;;;;23.58;17.27;;;;;;;7.47;76.19;99517.75;5013386;28;20541;-89
2022/01/08 09:11:03;;;;;;;26.33;19.38;;;;;;;7.92;75.93;99604.97;4995574;28;20025;-89
2022/01/08 09:13:29;;;;;;;28.80;20.33;;;;;;;7.70;76.11;99541.66;5013391;28;20018;-89
2022/01/08 09:15:54;;;;;;;24.73;20.05;;;;;;;7.12;76.10;99460.97;5013026;28;20426;-87
2022/01/08 09:18:20;;;;;;;28.15;21.38;;;;;;;6.83;76.32;99409.66;5013021;28;20080;-89
2022/01/08 09:20:46;;;;;;;31.95;23.88;;;;;;;7.90;76.55;99564.03;5013382;28;20053;-89
2022/01/08 09:23:12;;;;;;;31.52;24.02;;;;;;;7.07;76.11;99429.94;5013513;28;20112;-89
2022/01/08 09:25:38;;;;;;;32.03;24.77;;;;;;;7.55;76.76;99510.72;5013264;28;20033;-89
2022/01/08 09:28:03;;;;;;;29.35;23.50;;;;;;;7.06;76.73;99422.22;5013238;28;20388;-90
2022/01/08 09:30:29;;;;;;;31.75;24.67;;;;;;;7.12;76.86;99424.22;5013392;28;20076;-89
2022/01/08 09:32:55;;;;;;;29.98;23.38;;;;;;;7.05;76.63;99424.03;5013271;28;20506;-88
2022/01/08 09:35:21;;;;;;;30.70;22.77;;;;;;;6.60;76.64;99348.19;5012915;28;20038;-88
2022/01/08 09:37:46;;;;;;;28.63;19.42;;;;;;;7.53;76.41;99452.25;5012959;28;20033;-90
2022/01/08 09:40:15;;;;;;;23.05;17.30;;;;;;;8.19;76.71;99532.91;5012617;28;20030;-89
2022/01/08 09:42:42;;;;;;;23.05;17.45;;;;;;;7.12;76.21;99345.44;5012771;28;20034;-89
2022/01/08 09:45:09;;;;;;;23.75;19.10;;;;;;;7.57;76.33;99392.34;5012805;28;20030;-89
2022/01/08 09:47:35;;;;;;;25.05;19.63;;;;;;;8.42;76.01;99517.31;5012715;28;20104;-89
2022/01/08 09:50:02;;;;;;;27.23;22.20;;;;;;;7.45;75.78;99352.44;4995074;28;20418;-89
2022/01/08 09:52:29;;;;;;;28.35;21.90;;;;;;;8.52;75.83;99530.31;5013133;28;20033;-89
2022/01/08 09:54:55;;;;;;;28.80;20.52;;;;;;;7.17;75.63;99306.41;4994120;28;20503;-87
2022/01/08 09:57:20;;;;;;;25.52;19.90;;;;;;;7.06;76.02;99267.34;5012571;28;20040;-87
2022/01/08 09:59:46;;;;;;;20.42;16.23;;;;;;;8.56;75.98;99500.03;5012613;28;20034;-87
2022/01/08 10:02:11;;;;;;;32.15;21.63;;;;;;;7.81;75.81;99375.75;5012584;28;20033;-87
2022/01/08 10:04:38;;;;;;;28.77;17.35;;;;;;;8.59;75.93;99491.81;5012745;28;20391;-86
2022/01/08 10:07:18;;;;;;;27.05;16.98;;;;;;;8.60;75.70;99491.66;5012698;28;20038;-87
2022/01/08 10:10:16;;;;;;;15.23;12.50;;;;;;;8.58;75.76;99487.53;5012752;28;20625;-89
2022/01/08 10:12:53;;;;;;;10.80;9.68;;;;;;;8.59;75.64;99483.91;5012675;28;20033;-87
2022/01/08 10:18:11;;;;;;;12.35;10.48;;;;;;;7.91;75.87;99379.88;5012558;28;20113;-88
2022/01/08 10:20:40;;;;;;;13.32;11.98;;;;;;;7.15;75.37;99250.63;5012344;28;20108;-87
2022/01/08 10:23:11;;;;;;;16.92;13.65;;;;;;;8.54;75.80;99476.53;5011996;28;20061;-88
2022/01/08 10:25:40;;;;;;;15.52;13.93;;;;;;;7.22;75.66;99270.81;5012039;28;20030;-86
2022/01/08 10:28:05;;;;;;;13.10;11.50;;;;;;;8.48;75.99;99443.00;5011937;28;20033;-86
2022/01/08 10:30:31;;;;;;;13.93;12.63;;;;;;;7.40;75.92;99286.41;5012086;28;20034;-86
2022/01/08 10:33:01;;;;;;;14.52;11.68;;;;;;;8.63;75.59;99460.72;5011760;28;20422;-87
2022/01/08 10:35:51;;;;;;;17.95;15.55;;;;;;;7.58;75.64;99292.34;5012991;28;20083;-87
2022/01/08 10:38:18;;;;;;;28.25;21.35;;;;;;;8.20;76.03;99383.81;5012632;28;20418;-87
2022/01/08 10:40:43;;;;;;;36.95;24.65;;;;;;;7.74;76.01;99309.06;5030967;28;20037;-86
2022/01/08 10:43:32;;;;;;;18.65;15.55;;;;;;;8.26;76.32;99391.03;5021695;28;20026;-85
2022/01/08 10:46:10;;;;;;;26.27;19.27;;;;;;;8.61;75.88;99442.47;5012898;28;20425;-87
2022/01/08 10:48:36;;;;;;;14.68;13.15;;;;;;;8.60;76.03;99465.34;4994756;28;20037;-87
2022/01/08 10:51:13;;;;;;;13.95;11.85;;;;;;;8.45;76.01;99427.53;5012519;28;20029;-87
2022/01/08 10:53:54;;;;;;;15.82;13.32;;;;;;;8.60;75.91;99444.28;4995105;28;20041;-87
2022/01/08 10:56:32;;;;;;;22.58;17.27;;;;;;;8.51;75.82;99424.22;5012079;28;20045;-87
2022/01/08 10:59:24;;;;;;;22.30;17.52;;;;;;;8.66;76.24;99437.53;5011714;28;20030;-87
2022/01/08 11:01:54;;;;;;;22.95;18.05;;;;;;;8.69;76.13;99436.38;5008167;28;20052;-87
2022/01/08 11:04:43;;;;;;;22.25;19.45;;;;;;;8.51;76.23;99395.28;5011670;28;20083;-87
2022/01/08 11:07:15;;;;;;;28.05;20.85;;;;;;;8.71;75.91;99422.03;4994266;28;20410;-87
2022/01/08 11:09:43;;;;;;;25.05;20.52;;;;;;;8.72;75.76;99425.50;5012250;28;20463;-86
2022/01/08 11:12:13;;;;;;;19.35;16.63;;;;;;;8.58;76.05;99403.34;5016550;28;20030;-87
2022/01/08 11:17:25;;;;;;;30.27;22.90;;;;;;;7.78;75.54;99274.41;5040579;28;20053;-86
2022/01/08 11:19:56;;;;;;;19.75;15.05;;;;;;;8.21;75.88;99336.31;5040067;28;20013;-85
2022/01/08 11:22:24;;;;;;;25.67;18.90;;;;;;;7.07;75.98;99170.06;5016879;28;20032;-86
2022/01/08 11:25:05;;;;;;;37.75;22.95;;;;;;;8.66;76.17;99413.84;5015796;28;20607;-86
2022/01/08 11:27:39;;;;;;;47.03;25.60;;;;;;;8.67;76.39;99402.31;5015964;28;20033;-87
2022/01/08 11:30:09;;;;;;;38.13;24.25;;;;;;;7.83;76.31;99271.28;5015985;28;20026;-87
2022/01/08 11:32:36;;;;;;;31.27;21.23;;;;;;;8.59;75.99;99399.72;5015080;28;20030;-87
2022/01/08 11:35:03;;;;;;;29.65;21.80;;;;;;;7.62;75.93;99243.72;5015146;28;20483;-86
2022/01/08 11:37:30;;;;;;;25.85;20.35;;;;;;;8.58;76.41;99398.06;5015202;28;20018;-87
2022/01/08 11:39:59;;;;;;;30.73;21.90;;;;;;;8.40;76.36;99353.56;4997454;28;20165;-87
2022/01/08 11:42:26;;;;;;;22.73;18.58;;;;;;;7.38;76.25;99182.50;5015213;28;20029;-86
2022/01/08 11:44:55;;;;;;;24.77;19.50;;;;;;;8.68;76.13;99387.34;5015216;28;20021;-87
2022/01/08 11:47:21;;;;;;;22.70;18.13;;;;;;;6.37;75.90;99020.16;5014790;28;20030;-86
2022/01/08 11:49:48;;;;;;;18.60;15.88;;;;;;;8.70;76.25;99386.19;5014945;28;20037;-86
2022/01/08 11:52:22;;;;;;;18.77;16.45;;;;;;;7.68;75.94;99215.97;5014817;28;20036;-87
2022/01/08 11:54:49;;;;;;;20.42;17.65;;;;;;;8.48;76.15;99348.28;5014674;28;20026;-86
2022/01/08 11:57:24;;;;;;;19.02;16.52;;;;;;;8.64;76.17;99386.03;5014688;28;20026;-86